Airfield :
LOGIN :

Register | Disclaimer

   EN    FR    IT 

 










Legend :    VFR   Marginal VFR   IFR   Intensive IFR   Very Intensive IFR
Visi :
Ceiling :
>= 8 km
>= 3000ft
5 to 8 km
1000 to 3000 ft
1500m to 5 km
500 to 1000 ft
800 to 1500m
200 to 500 ft
< 800m
< 200 ft
Symbols :   Thunderstorms  Fog  Heavy snow  Heavy precipitations  Wind > 20 kt
SIGMETs :     Misc.  Thunderstorms  Icing  Turbulence  Mountain Waves  Volcanic Ashes






- Airport Elevation : 2096 ft
- IATA code : AUR


LFLW - Aurillac

CURRENT METAR :
  • 241500Z AUTO 22003KT 170V270 9999 FEW009/// BKN015/// OVC021/// ///TCU 13/12 Q1010 TEMPO 4000 SHRA BKN012 FEW025CB

EXPIRED METARs :
  • 241430Z AUTO 25005KT 210V290 2900 -RA BR SCT007/// BKN014/// BKN019/// ///TCU 13/11 Q1010 TEMPO 4000 SHRA BKN012 FEW025CB
  • 241400Z AUTO 27006KT 230V300 9999 BKN012 BKN019 OVC026 13/12 Q1011 TEMPO 4000 SHRA BKN012 FEW025CB
  • 241330Z AUTO 28005KT 230V320 9999 SCT011/// BKN029/// OVC036/// ///TCU 13/12 Q1011 TEMPO 4000 SHRA BKN012 FEW025CB
  • 241300Z AUTO 26007KT 230V300 9999 -RA FEW009/// BKN032/// OVC062/// ///CB 13/12 Q1011 TEMPO 4000 SHRA BKN012 FEW025CB
  • 241230Z AUTO 20005KT 160V260 9999 SCT013/// OVC023/// ///CB 15/13 Q1010 TEMPO 4000 SHRA BKN012 FEW025CB
  • 241200Z AUTO 21008KT 170V250 9999 BKN012/// BKN019/// BKN027/// ///CB 15/13 Q1011 TEMPO 4000 SHRA BECMG SCT015TCU BKN045

TAF TAF LFLW
Valid from the 24 at 15:00 until the 25 at 00:00 UTC


241400Z 2415/2424 26008KT 9999 SCT013TCU BKN035
TEMPO 2415/2424 4000 SHRA BKN012 FEW025CB
PROB40
TEMPO 2420/2424 26015G25KT 2000



MET'MAP, your aeronautical weather chart ! - Copyright ORBIFLY December 2007 - Disclaimer

ORBIFLY MET'MAP TEAM :

Programming & Development : Alexandra Zaïnal
Concept & original design : Baudouin d'Aumeries
Assistance for programming : Marc-Olivier Méhu
Technical & hardware support : Manuel Goepfert

Contact : metmap@orbifly.com




SOURCES & CREDITS :

   NOAA